createdAt,value
2018-05-31T00:04:21.163Z,21.79
2018-05-31T00:06:52.881Z,21.75
2018-05-31T00:09:21.927Z,21.71
2018-05-31T00:11:50.918Z,21.67
2018-05-31T00:14:19.995Z,21.62
2018-05-31T00:16:49.025Z,21.55
2018-05-31T00:19:18.051Z,21.53
2018-05-31T00:21:47.158Z,21.50
2018-05-31T00:24:16.499Z,21.46
2018-05-31T00:29:43.318Z,21.38
2018-05-31T00:32:12.706Z,21.33
2018-05-31T00:34:41.700Z,21.31
2018-05-31T00:37:11.097Z,21.05
2018-05-31T00:39:40.377Z,20.66
2018-05-31T00:42:09.388Z,20.43
2018-05-31T00:44:38.413Z,20.37
2018-05-31T00:47:07.447Z,20.49
2018-05-31T00:49:36.453Z,20.62
2018-05-31T00:52:05.684Z,20.70
2018-05-31T00:54:34.965Z,20.74
2018-05-31T00:57:03.929Z,20.77
2018-05-31T00:59:33.018Z,20.78
2018-05-31T01:02:02.060Z,20.78
2018-05-31T01:04:31.412Z,20.78
2018-05-31T01:07:00.651Z,20.79
2018-05-31T01:09:29.975Z,20.78
2018-05-31T01:11:59.284Z,20.77
2018-05-31T01:14:28.527Z,20.76
2018-05-31T01:16:57.525Z,20.73
2018-05-31T01:19:26.580Z,20.68
2018-05-31T01:21:56.090Z,20.63
2018-05-31T01:24:25.107Z,20.62
2018-05-31T01:26:53.907Z,20.61
2018-05-31T01:29:23.366Z,20.60
2018-05-31T01:31:52.587Z,20.58
2018-05-31T01:34:21.590Z,20.56
2018-05-31T01:36:50.569Z,20.53
2018-05-31T01:39:21.046Z,20.52
2018-05-31T01:41:51.988Z,20.50
2018-05-31T01:44:22.930Z,20.43
2018-05-31T01:46:52.603Z,20.43
2018-05-31T01:49:23.338Z,20.42
2018-05-31T01:51:54.563Z,20.39
2018-05-31T01:54:25.309Z,20.35
2018-05-31T01:56:54.571Z,20.30
2018-05-31T01:59:25.259Z,20.28
2018-05-31T02:01:57.053Z,20.26
2018-05-31T02:04:28.885Z,20.23
2018-05-31T02:06:58.937Z,20.21
2018-05-31T02:09:29.982Z,20.18
2018-05-31T02:12:01.907Z,20.15
2018-05-31T02:14:32.048Z,20.13
2018-05-31T02:17:03.561Z,20.12
2018-05-31T02:19:34.228Z,20.07
2018-05-31T02:22:05.069Z,20.00
2018-05-31T02:24:36.182Z,19.96
2018-05-31T02:27:07.091Z,19.93
2018-05-31T02:29:38.246Z,19.93
2018-05-31T02:32:09.013Z,19.90
2018-05-31T02:34:39.783Z,19.89
2018-05-31T02:37:10.475Z,19.86
2018-05-31T02:39:41.585Z,19.82
2018-05-31T02:42:12.450Z,19.81
2018-05-31T02:44:44.348Z,19.77
2018-05-31T02:47:14.999Z,19.74
2018-05-31T02:49:46.046Z,19.72
2018-05-31T02:52:17.736Z,19.72
2018-05-31T02:54:48.572Z,19.71
2018-05-31T02:57:19.240Z,19.69
2018-05-31T02:59:50.184Z,19.67
2018-05-31T03:02:20.975Z,19.66
2018-05-31T03:04:52.834Z,19.63
2018-05-31T03:07:23.817Z,19.62
2018-05-31T03:09:54.766Z,19.62
2018-05-31T03:12:25.553Z,19.56
2018-05-31T03:14:54.592Z,19.50
2018-05-31T03:17:25.718Z,19.52
2018-05-31T03:19:56.538Z,19.51
2018-05-31T03:22:27.610Z,19.50
2018-05-31T03:24:57.723Z,19.63
2018-05-31T03:27:28.358Z,19.88
2018-05-31T03:29:59.611Z,20.08
2018-05-31T03:32:31.601Z,20.31
2018-05-31T03:35:02.602Z,20.49
2018-05-31T03:37:33.716Z,20.61
2018-05-31T03:40:04.085Z,20.76
2018-05-31T03:42:34.950Z,20.85
2018-05-31T03:45:05.617Z,20.93
2018-05-31T03:47:36.692Z,21.03
2018-05-31T03:50:07.608Z,21.11
2018-05-31T03:52:38.168Z,21.15
2018-05-31T03:55:08.924Z,21.18
2018-05-31T03:57:39.792Z,21.25
2018-05-31T04:00:10.638Z,21.34
2018-05-31T04:02:41.472Z,21.41
2018-05-31T04:05:12.174Z,21.46
2018-05-31T04:07:42.853Z,21.33
2018-05-31T04:10:13.988Z,21.52
2018-05-31T04:12:44.601Z,21.57
2018-05-31T04:15:15.618Z,21.57
2018-05-31T04:17:46.543Z,21.67
2018-05-31T04:20:17.620Z,21.68
2018-05-31T04:22:48.449Z,21.63
2018-05-31T04:25:19.743Z,21.64
2018-05-31T04:27:51.776Z,21.67
2018-05-31T04:30:21.045Z,21.71
2018-05-31T04:32:53.233Z,21.75
2018-05-31T04:35:24.867Z,21.71
2018-05-31T04:37:55.482Z,21.74
2018-05-31T04:40:25.285Z,21.72
2018-05-31T04:42:55.898Z,21.73
2018-05-31T04:45:28.641Z,21.52
2018-05-31T04:47:58.233Z,21.67
2018-05-31T04:50:30.400Z,21.85
2018-05-31T04:53:01.314Z,22.03
2018-05-31T04:55:33.172Z,22.10
2018-05-31T04:58:02.170Z,22.06
2018-05-31T05:00:31.274Z,22.13
2018-05-31T05:03:00.612Z,22.06
2018-05-31T05:05:32.296Z,22.10
2018-05-31T05:08:03.118Z,22.24
2018-05-31T05:10:34.300Z,22.36
2018-05-31T05:13:04.220Z,22.33
2018-05-31T05:15:35.132Z,22.45
2018-05-31T05:18:05.465Z,22.57
2018-05-31T05:20:36.709Z,22.51
2018-05-31T05:23:07.620Z,22.58
2018-05-31T05:25:36.638Z,22.66
2018-05-31T05:28:05.650Z,22.66
2018-05-31T05:30:34.847Z,22.63
2018-05-31T05:33:03.881Z,22.69
2018-05-31T05:35:33.090Z,22.81
2018-05-31T05:38:02.125Z,22.88
2018-05-31T05:40:31.082Z,22.89
2018-05-31T05:43:00.380Z,22.92
2018-05-31T05:45:29.388Z,22.97
2018-05-31T05:47:58.671Z,22.98
2018-05-31T05:50:27.672Z,23.01
2018-05-31T05:52:56.700Z,23.13
2018-05-31T05:55:25.906Z,23.17
2018-05-31T05:57:55.013Z,23.23
2018-05-31T06:00:24.132Z,23.30
2018-05-31T06:02:53.459Z,23.32
2018-05-31T06:05:22.525Z,23.43
2018-05-31T06:07:51.544Z,23.55
2018-05-31T06:10:20.591Z,23.66
2018-05-31T06:12:49.795Z,23.76
2018-05-31T06:15:18.786Z,23.79
2018-05-31T06:17:47.799Z,23.85
2018-05-31T06:20:16.793Z,23.91
2018-05-31T06:22:45.973Z,24.00
2018-05-31T06:25:14.959Z,24.04
2018-05-31T06:27:43.958Z,24.12
2018-05-31T06:30:12.959Z,24.12
2018-05-31T06:32:42.287Z,24.13
2018-05-31T06:35:11.121Z,24.23
2018-05-31T06:37:40.133Z,24.27
2018-05-31T06:40:09.277Z,24.32
2018-05-31T06:42:38.598Z,24.42
2018-05-31T06:45:07.646Z,24.51
2018-05-31T06:47:36.656Z,24.57
2018-05-31T06:50:06.697Z,24.64
2018-05-31T06:52:35.898Z,24.67
2018-05-31T06:55:04.927Z,24.71
2018-05-31T06:57:33.943Z,24.75
2018-05-31T07:00:03.289Z,24.85
2018-05-31T07:02:32.563Z,24.93
2018-05-31T07:05:01.805Z,25.06
2018-05-31T07:07:30.848Z,25.11
2018-05-31T07:09:59.938Z,25.22
2018-05-31T07:12:28.927Z,25.25
2018-05-31T07:14:57.896Z,25.37
2018-05-31T07:17:26.974Z,25.42
2018-05-31T07:19:56.011Z,25.54
2018-05-31T07:22:25.065Z,25.62
2018-05-31T07:24:54.050Z,25.70
2018-05-31T07:27:23.286Z,25.82
2018-05-31T07:29:52.534Z,25.88
2018-05-31T07:32:21.742Z,25.93
2018-05-31T07:34:51.558Z,26.00
2018-05-31T07:37:20.566Z,26.10
2018-05-31T07:39:49.571Z,26.20
2018-05-31T07:42:18.789Z,26.27
2018-05-31T07:44:48.049Z,26.32
2018-05-31T07:47:17.321Z,26.41
2018-05-31T07:49:46.334Z,26.49
2018-05-31T07:52:15.544Z,26.50
2018-05-31T07:54:44.794Z,26.44
2018-05-31T07:57:14.017Z,26.50
2018-05-31T07:59:43.022Z,26.55
2018-05-31T08:02:12.033Z,26.68
2018-05-31T08:04:41.051Z,26.79
2018-05-31T08:07:10.066Z,26.92
2018-05-31T08:09:39.322Z,26.98
2018-05-31T08:12:08.380Z,27.14
2018-05-31T08:14:37.494Z,27.25
2018-05-31T08:17:06.803Z,27.35
2018-05-31T08:19:35.840Z,27.41
2018-05-31T08:22:05.269Z,27.55
2018-05-31T08:24:34.346Z,27.56
2018-05-31T08:27:03.350Z,27.71
2018-05-31T08:29:32.322Z,27.76
2018-05-31T08:32:01.705Z,27.94
2018-05-31T08:34:31.001Z,27.92
2018-05-31T08:36:59.987Z,28.13
2018-05-31T08:39:29.001Z,28.15
2018-05-31T08:41:58.036Z,28.38
2018-05-31T08:44:27.082Z,28.51
2018-05-31T08:46:56.104Z,28.59
2018-05-31T08:49:25.129Z,28.73
2018-05-31T08:51:54.099Z,28.89
2018-05-31T08:54:24.318Z,28.94
2018-05-31T08:56:55.853Z,28.92
2018-05-31T08:59:26.688Z,29.10
2018-05-31T09:01:57.710Z,29.17
2018-05-31T09:04:28.552Z,29.25
2018-05-31T09:07:00.185Z,29.31
2018-05-31T09:09:30.989Z,29.47
2018-05-31T09:12:01.458Z,29.51
2018-05-31T09:14:32.541Z,29.60
2018-05-31T09:17:02.874Z,29.72
2018-05-31T09:19:33.474Z,29.78
2018-05-31T09:22:04.159Z,29.89
2018-05-31T09:24:33.119Z,29.98
2018-05-31T09:27:03.329Z,29.93
2018-05-31T09:29:34.460Z,30.02
2018-05-31T09:32:05.669Z,30.15
2018-05-31T09:34:36.498Z,30.30
2018-05-31T09:37:07.502Z,30.42
2018-05-31T09:39:38.395Z,30.46
2018-05-31T09:42:09.328Z,30.40
2018-05-31T09:44:40.502Z,30.40
2018-05-31T09:47:12.390Z,30.54
2018-05-31T09:49:41.374Z,30.67
2018-05-31T09:52:10.602Z,30.62
2018-05-31T09:54:39.665Z,30.59
2018-05-31T09:57:08.638Z,30.79
2018-05-31T09:59:37.625Z,31.03
2018-05-31T10:02:06.694Z,31.05
2018-05-31T10:04:35.687Z,31.19
2018-05-31T10:07:05.012Z,31.17
2018-05-31T10:09:34.002Z,31.26
2018-05-31T10:12:02.990Z,31.42
2018-05-31T10:14:32.015Z,31.45
2018-05-31T10:17:01.078Z,31.48
2018-05-31T10:19:30.049Z,31.50
2018-05-31T10:21:59.198Z,31.45
2018-05-31T10:24:28.220Z,31.60
2018-05-31T10:26:57.258Z,31.73
2018-05-31T10:29:26.238Z,31.50
2018-05-31T10:31:55.222Z,31.70
2018-05-31T10:34:24.295Z,31.81
2018-05-31T10:36:53.629Z,31.89
2018-05-31T10:39:22.682Z,31.92
2018-05-31T10:41:51.854Z,32.14
2018-05-31T10:44:20.898Z,32.36
2018-05-31T10:46:50.220Z,32.32
2018-05-31T10:49:19.242Z,32.53
2018-05-31T10:51:48.323Z,32.36
2018-05-31T10:54:17.609Z,32.33
2018-05-31T10:56:46.663Z,32.59
2018-05-31T10:59:16.325Z,32.73
2018-05-31T11:01:45.769Z,32.61
2018-05-31T11:04:14.815Z,32.21
2018-05-31T11:06:46.084Z,32.17
2018-05-31T11:09:16.000Z,31.86
2018-05-31T11:11:45.694Z,32.00
2018-05-31T11:14:18.876Z,32.18
2018-05-31T11:16:50.675Z,32.43
2018-05-31T11:19:20.257Z,32.48
2018-05-31T11:21:50.286Z,32.71
2018-05-31T11:24:22.188Z,32.74
2018-05-31T11:26:52.370Z,32.77
2018-05-31T11:29:22.482Z,32.66
2018-05-31T11:31:53.031Z,32.58
2018-05-31T11:34:23.507Z,32.67
2018-05-31T11:36:54.138Z,32.86
2018-05-31T11:39:23.154Z,32.96
2018-05-31T11:57:31.060Z,33.87
2018-05-31T12:00:00.036Z,33.95
2018-05-31T12:02:29.053Z,33.98
2018-05-31T12:04:58.076Z,34.04
2018-05-31T12:07:27.119Z,33.90
2018-05-31T12:09:56.101Z,33.75
2018-05-31T12:12:25.158Z,33.76
2018-05-31T12:14:54.206Z,33.75
2018-05-31T12:17:23.267Z,34.06
2018-05-31T12:19:52.904Z,34.12
2018-05-31T12:22:21.919Z,34.19
2018-05-31T12:24:50.900Z,34.34
2018-05-31T12:27:19.921Z,34.50
2018-05-31T12:29:48.933Z,34.59
2018-05-31T12:32:18.019Z,34.67
2018-05-31T12:34:47.168Z,34.85
2018-05-31T12:37:16.199Z,35.12
2018-05-31T12:39:45.201Z,35.06
2018-05-31T12:42:14.207Z,35.02
2018-05-31T12:44:43.174Z,34.89
2018-05-31T12:47:12.204Z,34.69
2018-05-31T12:49:41.192Z,34.90
2018-05-31T12:52:10.162Z,34.91
2018-05-31T12:54:39.154Z,35.14
2018-05-31T12:57:08.021Z,35.38
2018-05-31T12:59:37.037Z,35.36
2018-05-31T13:02:05.987Z,35.37
2018-05-31T13:04:34.997Z,34.89
2018-05-31T13:07:03.980Z,34.20
2018-05-31T13:09:32.975Z,34.14
2018-05-31T13:12:01.987Z,34.13
2018-05-31T13:14:30.976Z,34.38
2018-05-31T13:17:00.366Z,34.64
2018-05-31T13:19:29.517Z,34.68
2018-05-31T13:21:58.474Z,34.81
2018-05-31T13:24:27.443Z,34.91
2018-05-31T13:26:56.823Z,35.28
2018-05-31T13:29:25.800Z,35.51
2018-05-31T13:31:54.766Z,35.55
2018-05-31T13:34:23.773Z,35.86
2018-05-31T13:36:52.764Z,35.90
2018-05-31T13:39:21.726Z,35.97
2018-05-31T13:41:50.764Z,35.91
2018-05-31T13:44:19.831Z,35.33
2018-05-31T13:46:48.826Z,35.38
2018-05-31T13:49:18.433Z,35.36
2018-05-31T13:51:47.425Z,35.38
2018-05-31T13:54:16.423Z,35.46
2018-05-31T13:56:45.357Z,35.69
2018-05-31T13:59:14.336Z,35.69
2018-05-31T14:01:43.305Z,35.64
2018-05-31T14:04:12.336Z,35.33
2018-05-31T14:06:41.306Z,35.58
2018-05-31T14:09:10.346Z,35.63
2018-05-31T14:11:39.318Z,35.90
2018-05-31T14:14:08.305Z,36.03
2018-05-31T14:16:37.275Z,36.23
2018-05-31T14:19:06.226Z,36.57
2018-05-31T14:21:35.243Z,36.83
2018-05-31T14:24:04.209Z,37.01
2018-05-31T14:26:34.091Z,37.21
2018-05-31T14:29:03.116Z,37.17
2018-05-31T14:31:32.110Z,37.06
2018-05-31T14:34:02.031Z,36.71
2018-05-31T14:36:31.576Z,36.50
2018-05-31T14:39:00.551Z,36.60
2018-05-31T14:41:29.245Z,36.43
2018-05-31T14:43:58.248Z,36.14
2018-05-31T14:46:27.216Z,35.47
2018-05-31T14:48:56.222Z,35.29
2018-05-31T14:51:25.218Z,34.97
2018-05-31T14:53:54.233Z,34.80
2018-05-31T14:56:23.448Z,35.12
2018-05-31T14:58:53.023Z,34.97
2018-05-31T15:01:22.003Z,34.98
2018-05-31T15:03:51.011Z,34.59
2018-05-31T15:06:19.987Z,34.40
2018-05-31T15:08:48.993Z,33.64
2018-05-31T15:11:17.971Z,33.19
2018-05-31T15:13:46.964Z,33.27
2018-05-31T15:16:16.807Z,32.83
2018-05-31T15:18:45.616Z,32.86
2018-05-31T15:21:14.489Z,32.97
2018-05-31T15:23:43.509Z,33.28
2018-05-31T15:26:12.540Z,33.49
2018-05-31T15:28:41.543Z,33.40
2018-05-31T15:31:10.548Z,33.42
2018-05-31T15:33:39.539Z,33.46
2018-05-31T15:36:08.510Z,33.53
2018-05-31T15:38:37.593Z,33.42
2018-05-31T15:41:06.571Z,33.64
2018-05-31T15:43:35.550Z,33.86
2018-05-31T15:46:04.625Z,33.94
2018-05-31T15:48:33.595Z,34.14
2018-05-31T15:51:02.605Z,34.35
2018-05-31T15:53:31.685Z,34.44
2018-05-31T15:56:00.820Z,34.59
2018-05-31T15:58:29.794Z,34.56
2018-05-31T16:00:58.792Z,34.54
2018-05-31T16:03:27.771Z,34.57
2018-05-31T16:05:56.783Z,33.93
2018-05-31T16:08:25.742Z,33.50
2018-05-31T16:10:54.690Z,33.63
2018-05-31T16:13:23.700Z,33.60
2018-05-31T16:15:52.699Z,33.62
2018-05-31T16:18:21.733Z,33.40
2018-05-31T16:20:50.713Z,33.23
2018-05-31T16:23:19.726Z,33.32
2018-05-31T16:25:49.451Z,32.98
2018-05-31T16:28:18.431Z,33.02
2018-05-31T16:30:47.425Z,32.84
2018-05-31T16:33:16.761Z,32.59
2018-05-31T16:35:45.796Z,32.46
2018-05-31T16:38:14.777Z,32.26
2018-05-31T16:40:43.801Z,32.09
2018-05-31T16:43:13.415Z,31.43
2018-05-31T16:45:42.371Z,31.23
2018-05-31T16:48:11.327Z,31.12
2018-05-31T16:50:40.367Z,31.13
2018-05-31T16:53:09.401Z,31.18
2018-05-31T16:55:38.850Z,31.34
2018-05-31T16:58:07.968Z,31.13
2018-05-31T17:00:36.938Z,31.35
2018-05-31T17:03:05.938Z,31.10
2018-05-31T17:05:34.939Z,30.98
2018-05-31T17:08:03.970Z,30.86
2018-05-31T17:10:32.982Z,30.70
2018-05-31T17:13:02.544Z,30.63
2018-05-31T17:15:32.264Z,30.59
2018-05-31T17:18:01.307Z,30.69
2018-05-31T17:20:30.266Z,30.67
2018-05-31T17:22:59.304Z,30.77
2018-05-31T17:25:28.275Z,30.80
2018-05-31T17:27:57.248Z,30.56
2018-05-31T17:30:26.274Z,30.43
2018-05-31T17:32:55.315Z,30.46
2018-05-31T17:35:24.354Z,30.52
2018-05-31T17:37:53.394Z,30.55
2018-05-31T17:40:22.379Z,30.45
2018-05-31T17:42:51.397Z,30.36
2018-05-31T17:45:21.271Z,30.32
2018-05-31T17:47:50.295Z,30.16
2018-05-31T17:50:19.274Z,30.10
2018-05-31T17:52:48.254Z,30.09
2018-05-31T17:55:17.380Z,30.02
2018-05-31T17:57:46.605Z,29.87
2018-05-31T18:00:15.599Z,29.77
2018-05-31T18:02:44.716Z,29.86
2018-05-31T18:05:13.731Z,29.74
2018-05-31T18:07:42.821Z,29.62
2018-05-31T18:10:11.845Z,29.42
2018-05-31T18:12:41.033Z,29.32
2018-05-31T18:15:10.076Z,29.36
2018-05-31T18:17:39.100Z,29.20
2018-05-31T18:20:08.085Z,28.96
2018-05-31T18:22:37.134Z,29.07
2018-05-31T18:25:06.234Z,29.09
2018-05-31T18:27:35.305Z,28.88
2018-05-31T18:30:04.262Z,28.92
2018-05-31T18:32:33.346Z,28.83
2018-05-31T18:35:02.445Z,28.78
2018-05-31T18:37:31.488Z,28.64
2018-05-31T18:40:00.752Z,28.73
2018-05-31T18:42:30.052Z,28.76
2018-05-31T18:44:59.052Z,28.81
2018-05-31T18:47:28.151Z,28.51
2018-05-31T18:49:57.241Z,28.35
2018-05-31T18:52:27.134Z,28.43
2018-05-31T18:54:56.504Z,28.32
2018-05-31T18:57:25.623Z,28.22
2018-05-31T18:59:54.676Z,28.28
2018-05-31T19:02:23.967Z,28.23
2018-05-31T19:04:53.130Z,28.14
2018-05-31T19:07:21.980Z,28.16
2018-05-31T19:09:51.098Z,28.12
2018-05-31T19:12:27.244Z,27.97
2018-05-31T19:14:56.427Z,27.94
2018-05-31T19:17:25.968Z,27.80
2018-05-31T19:19:55.971Z,27.85
2018-05-31T19:22:26.505Z,27.91
2018-05-31T19:25:01.182Z,27.94
2018-05-31T19:27:31.021Z,27.96
2018-05-31T19:30:06.111Z,28.02
2018-05-31T19:32:36.931Z,28.05
2018-05-31T19:35:07.210Z,28.05
2018-05-31T19:37:38.524Z,28.07
2018-05-31T19:40:08.339Z,28.05
2018-05-31T19:42:44.587Z,28.03
2018-05-31T19:45:15.467Z,27.98
2018-05-31T19:47:45.943Z,27.93
2018-05-31T19:50:16.863Z,27.87
2018-05-31T19:52:53.156Z,27.81
2018-05-31T19:55:24.328Z,27.62
2018-05-31T19:58:00.564Z,27.41
2018-05-31T20:00:36.584Z,27.32
2018-05-31T20:03:12.382Z,27.21
2018-05-31T20:05:42.983Z,27.07
2018-05-31T20:08:13.152Z,26.95
2018-05-31T20:10:43.312Z,26.79
2018-05-31T20:13:13.467Z,26.80
2018-05-31T20:15:45.061Z,26.81
2018-05-31T20:18:15.626Z,26.82
2018-05-31T20:20:45.752Z,26.87
2018-05-31T20:23:16.413Z,26.88
2018-05-31T20:25:47.037Z,26.88
2018-05-31T20:28:17.198Z,26.81
2018-05-31T20:30:47.029Z,26.79
2018-05-31T20:33:16.945Z,26.79
2018-05-31T20:35:46.484Z,26.75
2018-05-31T20:38:15.977Z,26.66
2018-05-31T20:40:45.275Z,26.51
2018-05-31T20:43:14.397Z,26.46
2018-05-31T20:45:44.335Z,26.46
2018-05-31T20:48:13.443Z,26.46
2018-05-31T20:50:42.582Z,26.48
2018-05-31T20:53:11.614Z,26.45
2018-05-31T20:55:40.988Z,26.41
2018-05-31T20:58:10.038Z,26.37
2018-05-31T21:00:39.509Z,26.31
2018-05-31T21:03:08.735Z,26.27
2018-05-31T21:05:37.810Z,26.18
2018-05-31T21:08:07.569Z,26.13
2018-05-31T21:10:36.521Z,26.10
2018-05-31T21:13:05.550Z,26.06
2018-05-31T21:15:34.524Z,26.00
2018-05-31T21:18:03.270Z,25.97
2018-05-31T21:20:32.359Z,25.92
2018-05-31T21:23:01.326Z,25.88
2018-05-31T21:25:30.329Z,25.86
2018-05-31T21:27:59.351Z,25.82
2018-05-31T21:30:28.295Z,25.76
2018-05-31T21:32:57.655Z,25.69
2018-05-31T21:35:26.684Z,25.62
2018-05-31T21:37:55.827Z,25.59
2018-05-31T21:40:24.853Z,25.55
2018-05-31T21:42:53.889Z,25.53
2018-05-31T21:45:23.002Z,25.49
2018-05-31T21:47:52.096Z,25.43
2018-05-31T21:50:21.074Z,25.38
2018-05-31T21:52:50.042Z,25.32
2018-05-31T21:55:19.124Z,25.25
2018-05-31T21:57:48.075Z,25.22
2018-05-31T22:00:32.706Z,25.17
2018-05-31T22:03:01.650Z,25.11
2018-05-31T22:05:30.621Z,25.06
2018-05-31T22:07:59.625Z,25.00
2018-05-31T22:10:32.905Z,24.94
2018-05-31T22:13:01.934Z,24.87
2018-05-31T22:15:31.239Z,24.82
2018-05-31T22:18:01.142Z,24.78
2018-05-31T22:20:30.190Z,24.72
2018-05-31T22:22:59.162Z,24.68
2018-05-31T22:25:28.139Z,24.67
2018-05-31T22:27:57.121Z,24.61
2018-05-31T22:30:26.066Z,24.56
2018-05-31T22:32:55.075Z,24.39
2018-05-31T22:35:24.022Z,24.37
2018-05-31T22:37:52.961Z,24.37
2018-05-31T22:40:21.985Z,24.35
2018-05-31T22:42:51.405Z,24.33
2018-05-31T22:45:20.392Z,24.28
2018-05-31T22:47:49.500Z,24.24
2018-05-31T22:50:18.470Z,24.19
2018-05-31T22:52:47.428Z,24.15
2018-05-31T22:55:16.391Z,24.10
2018-05-31T22:57:45.343Z,24.05
2018-05-31T23:00:13.766Z,23.96
2018-05-31T23:02:42.736Z,23.90
2018-05-31T23:05:11.681Z,23.85
2018-05-31T23:07:40.661Z,23.82
2018-05-31T23:10:09.618Z,23.77
2018-05-31T23:12:38.593Z,23.71
2018-05-31T23:15:07.822Z,23.58
2018-05-31T23:17:36.793Z,23.56
2018-05-31T23:20:05.738Z,23.56
2018-05-31T23:22:34.771Z,23.56
2018-05-31T23:25:03.717Z,23.54
2018-05-31T23:27:32.716Z,23.52
2018-05-31T23:30:01.745Z,23.46
2018-05-31T23:32:30.784Z,23.43
2018-05-31T23:34:59.734Z,23.42
2018-05-31T23:37:28.706Z,23.39
2018-05-31T23:39:57.661Z,23.34
2018-05-31T23:42:27.340Z,23.27
2018-05-31T23:44:56.278Z,23.26
2018-05-31T23:47:25.211Z,23.22
2018-05-31T23:49:54.210Z,23.19
2018-05-31T23:52:23.148Z,23.12
2018-05-31T23:54:52.115Z,23.07
2018-05-31T23:57:21.098Z,22.91
2018-05-31T23:59:50.043Z,22.91
